Time;durP1;ratioP1;P1;durP2;ratioP2;P2;SDS_P1;SDS_P2;PMS_P1;PMS_P2;Temp;Humidity;BMP_temperature;BMP_pressure;BME280_temperature;BME280_humidity;BME280_pressure;Samples;Min_cycle;Max_cycle;Signal;HPM_P1;HPM_P2
2021/12/27 00:00:33;;;;;;;45.73;42.23;;;;;;;-6.74;59.67;100887.78;6041767;23;20014;-83
2021/12/27 00:03:00;;;;;;;34.83;31.67;;;;;;;-6.77;59.41;100885.97;6037922;23;20016;-83
2021/12/27 00:05:26;;;;;;;46.42;42.50;;;;;;;-6.83;59.24;100880.72;6024935;23;20453;-83
2021/12/27 00:07:53;;;;;;;45.53;42.03;;;;;;;-6.81;59.25;100873.28;6023881;23;20023;-83
2021/12/27 00:10:19;;;;;;;44.78;41.53;;;;;;;-6.81;59.76;100878.28;6039155;23;20274;-83
2021/12/27 00:12:45;;;;;;;47.90;43.13;;;;;;;-6.90;60.27;100868.72;6041453;23;20071;-83
2021/12/27 00:15:11;;;;;;;46.08;42.03;;;;;;;-7.01;60.09;100847.41;6065175;23;20058;-83
2021/12/27 00:17:39;;;;;;;45.87;42.37;;;;;;;-7.14;60.33;100834.34;6041649;23;20068;-83
2021/12/27 00:20:05;;;;;;;47.08;42.80;;;;;;;-6.96;60.27;100841.78;6042202;23;20230;-83
2021/12/27 00:22:30;;;;;;;;;;;;;;;-6.91;60.29;100851.16;6042945;23;20002;-83
2021/12/27 00:24:56;;;;;;;45.20;41.08;;;;;;;-7.07;60.38;100825.47;6113767;23;19910;-82
2021/12/27 00:27:21;;;;;;;45.17;41.53;;;;;;;-6.98;60.91;100845.03;6042135;23;20223;-83
2021/12/27 00:29:46;;;;;;;43.20;40.27;;;;;;;-7.18;60.91;100817.47;6041186;23;20018;-83
2021/12/27 00:32:12;;;;;;;45.50;41.77;;;;;;;-6.96;60.98;100850.94;6040926;23;20047;-81
2021/12/27 00:34:37;;;;;;;46.30;43.10;;;;;;;-6.95;60.99;100847.66;6041793;23;20027;-83
2021/12/27 00:37:07;;;;;;;45.58;41.95;;;;;;;-7.21;61.42;100814.84;6041591;23;20022;-83
2021/12/27 00:39:33;;;;;;;44.28;40.67;;;;;;;-6.99;61.36;100838.31;6041551;23;20027;-83
2021/12/27 00:41:58;;;;;;;45.40;41.57;;;;;;;-7.00;61.39;100829.97;6041749;23;20010;-83
2021/12/27 00:44:24;;;;;;;47.30;43.30;;;;;;;-7.05;61.63;100828.03;6041997;23;20060;-83
2021/12/27 00:46:49;;;;;;;43.67;40.40;;;;;;;-6.87;61.59;100833.84;6042076;23;20234;-84
2021/12/27 00:49:14;;;;;;;45.50;42.00;;;;;;;-6.83;61.52;100835.69;6041529;23;20018;-84
2021/12/27 00:51:40;;;;;;;34.13;31.50;;;;;;;-6.80;61.35;100830.81;6041170;23;20051;-82
2021/12/27 00:54:05;;;;;;;43.10;40.20;;;;;;;-6.73;60.80;100833.59;6040404;23;20046;-83
2021/12/27 00:56:30;;;;;;;46.73;42.50;;;;;;;-6.90;61.63;100813.72;6039398;23;20011;-83
2021/12/27 00:58:56;;;;;;;43.23;40.07;;;;;;;-6.82;61.48;100797.38;6034105;23;20010;-83
2021/12/27 01:01:21;;;;;;;44.43;41.07;;;;;;;-6.66;61.23;100816.41;6030058;23;20058;-84
2021/12/27 01:03:46;;;;;;;46.73;42.57;;;;;;;-6.73;61.35;100811.06;6029470;23;20030;-83
2021/12/27 01:06:12;;;;;;;45.50;41.60;;;;;;;-6.66;61.06;100813.91;6026964;23;20011;-84
2021/12/27 01:08:37;;;;;;;46.17;42.43;;;;;;;-6.70;61.51;100793.69;6025774;23;20014;-84
2021/12/27 01:13:45;;;;;;;48.20;43.65;;;;;;;-6.81;61.36;100800.72;6050847;23;19991;-82
2021/12/27 01:16:12;;;;;;;46.67;42.72;;;;;;;-6.66;61.71;100813.91;6065726;23;19995;-82
2021/12/27 01:18:46;;;;;;;46.58;42.75;;;;;;;-6.73;61.91;100806.91;6064826;23;20055;-83
2021/12/27 01:21:14;;;;;;;45.88;42.30;;;;;;;-6.75;62.04;100809.34;6037875;23;19995;-83
2021/12/27 01:23:39;;;;;;;47.72;43.85;;;;;;;-6.66;62.18;100811.41;6056930;23;20007;-83
2021/12/27 01:26:05;;;;;;;47.97;44.20;;;;;;;-6.67;62.12;100808.84;6052457;23;19999;-84
2021/12/27 01:28:30;;;;;;;48.03;43.70;;;;;;;-6.78;62.59;100806.72;6030048;23;20027;-82
2021/12/27 01:30:56;;;;;;;46.97;43.07;;;;;;;-6.69;62.57;100800.41;6029398;23;20216;-82
2021/12/27 01:33:23;;;;;;;46.42;42.65;;;;;;;-6.58;62.34;100816.72;6028131;23;20003;-83
2021/12/27 01:35:48;;;;;;;;;;;;;;;-6.60;62.29;100818.28;6029979;23;20011;-84
2021/12/27 01:38:14;;;;;;;47.45;43.47;;;;;;;-6.59;62.71;100812.50;6102055;23;19913;-83
2021/12/27 01:40:42;;;;;;;48.67;44.67;;;;;;;-6.57;62.59;100818.41;6030887;23;20068;-83
2021/12/27 01:43:12;;;;;;;48.83;44.72;;;;;;;-6.56;62.68;100810.13;6054327;23;20026;-84
2021/12/27 01:45:44;;;;;;;47.92;43.63;;;;;;;-6.50;62.66;100804.53;6029253;23;20070;-85
2021/12/27 01:48:10;;;;;;;48.97;44.42;;;;;;;-6.60;62.90;100796.66;6054751;23;20506;-83
2021/12/27 01:50:37;;;;;;;;;;;;;;;-6.41;62.86;100794.88;6051681;23;20015;-83
2021/12/27 01:53:03;;;;;;;46.92;42.92;;;;;;;-6.44;62.67;100790.63;6103921;23;19906;-82
2021/12/27 01:55:29;;;;;;;;;;;;;;;-6.47;62.72;100793.00;6062009;23;20021;-83
2021/12/27 01:57:54;;;;;;;50.78;44.28;;;;;;;-6.56;63.36;100790.97;6107361;23;19906;-83
2021/12/27 02:00:20;;;;;;;45.80;42.23;;;;;;;-6.46;62.82;100791.34;6054371;23;20003;-83
2021/12/27 02:02:45;;;;;;;49.33;44.57;;;;;;;-6.59;63.31;100769.97;6029764;23;20007;-83
2021/12/27 02:05:12;;;;;;;51.33;46.05;;;;;;;-6.53;63.55;100781.91;6030328;23;20055;-83
2021/12/27 02:07:37;;;;;;;;;;;;;;;-6.51;63.84;100795.31;6031245;23;20003;-83
2021/12/27 02:10:03;;;;;;;48.30;44.08;;;;;;;-6.66;63.71;100763.00;6103284;23;19912;-83
2021/12/27 02:12:30;;;;;;;48.85;44.05;;;;;;;-6.49;63.35;100782.09;6055181;23;20003;-83
2021/12/27 02:14:55;;;;;;;50.65;46.08;;;;;;;-6.43;63.39;100772.28;6054567;23;20011;-83
2021/12/27 02:17:21;;;;;;;48.33;43.93;;;;;;;-6.38;63.61;100765.84;6054148;23;20035;-84
2021/12/27 02:19:48;;;;;;;49.67;45.20;;;;;;;-6.33;63.54;100750.16;6052563;23;20014;-84
2021/12/27 02:22:13;;;;;;;49.53;45.03;;;;;;;-6.33;63.92;100753.53;6029579;23;20011;-83
2021/12/27 02:24:40;;;;;;;47.67;43.40;;;;;;;-6.35;63.77;100746.75;6029844;23;20051;-84
2021/12/27 02:27:06;;;;;;;48.92;44.67;;;;;;;-6.36;63.99;100742.50;6063924;23;20003;-83
2021/12/27 02:29:31;;;;;;;36.88;33.78;;;;;;;-6.36;63.67;100747.53;6040749;23;20011;-83
2021/12/27 02:31:56;;;;;;;49.17;44.67;;;;;;;-6.41;64.00;100740.69;6063991;23;20022;-83
2021/12/27 02:34:22;;;;;;;46.83;43.20;;;;;;;-6.44;63.74;100735.56;6033978;23;20007;-82
2021/12/27 02:36:48;;;;;;;48.97;44.43;;;;;;;-6.51;64.17;100727.75;6029749;23;20011;-83
2021/12/27 02:39:14;;;;;;;48.38;43.97;;;;;;;-6.47;64.16;100735.44;6029602;23;20074;-83
2021/12/27 02:41:39;;;;;;;50.77;46.10;;;;;;;-6.53;64.55;100739.34;6028573;23;19999;-83
2021/12/27 02:44:05;;;;;;;50.03;45.30;;;;;;;-6.60;64.39;100715.69;6028985;23;20036;-83
2021/12/27 02:46:30;;;;;;;49.00;45.00;;;;;;;-6.61;64.81;100711.50;6028866;23;20435;-83
2021/12/27 02:48:55;;;;;;;47.13;43.57;;;;;;;-6.64;64.98;100699.72;6052344;23;20428;-83
2021/12/27 02:51:21;;;;;;;49.47;44.73;;;;;;;-6.67;65.15;100706.25;6028325;23;20011;-85
2021/12/27 02:53:47;;;;;;;48.50;44.30;;;;;;;-6.68;64.97;100697.03;6036484;23;20007;-83
2021/12/27 02:56:13;;;;;;;48.60;44.05;;;;;;;-6.59;65.22;100709.91;6038364;23;20003;-83
2021/12/27 02:58:38;;;;;;;49.97;45.83;;;;;;;-6.62;65.41;100715.63;6038991;23;20042;-82
2021/12/27 03:01:09;;;;;;;48.00;43.70;;;;;;;-6.60;65.46;100723.22;6034417;23;20246;-83
2021/12/27 03:03:35;;;;;;;48.13;44.10;;;;;;;-6.66;65.44;100712.97;6056459;23;20094;-83
2021/12/27 03:06:01;;;;;;;49.35;44.83;;;;;;;-6.64;65.30;100698.88;6033258;23;20003;-83
2021/12/27 03:08:27;;;;;;;48.70;44.43;;;;;;;-6.50;65.23;100711.94;6035005;23;20053;-83
2021/12/27 03:10:54;;;;;;;;;;;;;;;-6.47;65.37;100710.41;6032127;23;20086;-84
2021/12/27 03:13:27;;;;;;;49.17;44.83;;;;;;;-6.51;65.88;100706.06;6101255;23;19906;-84
2021/12/27 03:15:55;;;;;;;49.75;45.35;;;;;;;-6.48;65.60;100702.84;6060490;23;20008;-83
2021/12/27 03:18:21;;;;;;;50.42;45.35;;;;;;;-6.46;65.60;100707.13;6039187;23;20015;-83
2021/12/27 03:20:47;;;;;;;49.65;44.95;;;;;;;-6.42;65.18;100698.94;6058275;23;20035;-83
2021/12/27 03:23:12;;;;;;;50.22;45.22;;;;;;;-6.49;65.20;100691.09;6038144;23;20015;-83
2021/12/27 03:25:39;;;;;;;51.73;46.40;;;;;;;-6.49;65.71;100686.09;6041500;23;20061;-83
2021/12/27 03:28:05;;;;;;;50.47;45.38;;;;;;;-6.32;65.32;100675.09;6042287;23;20064;-84
2021/12/27 03:30:30;;;;;;;49.33;44.83;;;;;;;-6.42;65.67;100668.06;6041832;23;20011;-83
2021/12/27 03:32:56;;;;;;;46.37;42.60;;;;;;;-6.42;65.40;100666.38;6041774;23;20246;-82
2021/12/27 03:35:27;;;;;;;50.00;45.43;;;;;;;-6.42;65.58;100676.41;6041454;23;20043;-84
2021/12/27 03:37:56;;;;;;;46.70;42.70;;;;;;;-6.43;66.13;100674.69;6035215;23;20007;-83
2021/12/27 03:40:22;;;;;;;50.03;45.22;;;;;;;-6.56;65.58;100653.31;6036763;23;20011;-83
2021/12/27 03:42:51;;;;;;;51.70;46.20;;;;;;;-6.45;65.98;100672.94;6036889;23;20007;-82
2021/12/27 03:45:31;;;;;;;52.28;47.33;;;;;;;-6.46;65.90;100679.59;6039381;23;20428;-82
2021/12/27 03:47:57;;;;;;;47.67;43.60;;;;;;;-6.45;65.95;100681.28;6057029;23;20004;-83
2021/12/27 03:50:24;;;;;;;50.55;45.53;;;;;;;-6.51;65.96;100673.53;6026938;23;20329;-83
2021/12/27 03:52:51;;;;;;;50.17;45.20;;;;;;;-6.39;65.63;100694.03;6029799;23;20003;-83
2021/12/27 03:55:16;;;;;;;50.88;45.85;;;;;;;-6.39;65.95;100686.53;6059758;23;20094;-83
2021/12/27 03:57:50;;;;;;;51.00;46.13;;;;;;;-6.36;65.43;100667.41;6037911;23;19996;-84
2021/12/27 04:02:48;;;;;;;48.20;43.85;;;;;;;-6.31;65.63;100665.97;6065572;23;20053;-83
2021/12/27 04:05:14;;;;;;;47.97;44.15;;;;;;;-6.22;65.87;100677.19;6040035;23;20032;-82
2021/12/27 04:07:40;;;;;;;53.57;47.90;;;;;;;-6.31;65.95;100679.34;6042410;23;20019;-84
2021/12/27 04:10:08;;;;;;;50.10;45.22;;;;;;;-6.34;65.99;100660.84;6042130;23;20003;-83
2021/12/27 04:12:34;;;;;;;50.83;46.15;;;;;;;-6.29;66.27;100674.38;6041920;23;19999;-82
2021/12/27 04:15:00;;;;;;;51.80;47.05;;;;;;;-6.28;66.27;100666.94;6042039;23;19999;-83
2021/12/27 04:17:25;;;;;;;50.65;45.85;;;;;;;-6.16;66.70;100666.53;6042144;23;20024;-85
2021/12/27 04:19:51;;;;;;;52.23;46.93;;;;;;;-6.18;66.62;100654.78;6042182;23;19995;-83
2021/12/27 04:22:16;;;;;;;49.37;45.37;;;;;;;-6.16;66.41;100635.66;6042091;23;20010;-83
2021/12/27 04:24:41;;;;;;;40.80;35.73;;;;;;;-6.12;66.77;100643.34;6040663;23;20003;-83
2021/12/27 04:27:07;;;;;;;50.73;46.07;;;;;;;-6.16;66.51;100625.63;6035174;23;20015;-83
2021/12/27 04:29:32;;;;;;;49.37;44.53;;;;;;;-6.13;66.51;100619.06;6050889;23;20014;-83
2021/12/27 04:31:57;;;;;;;49.90;45.27;;;;;;;-6.06;67.07;100628.53;6025030;23;20003;-83
2021/12/27 04:34:23;;;;;;;56.47;48.63;;;;;;;-6.30;66.78;100597.56;6024259;23;20007;-84
2021/12/27 04:36:48;;;;;;;50.33;45.63;;;;;;;-6.06;66.84;100621.03;6025661;23;20007;-83
2021/12/27 04:39:13;;;;;;;53.27;48.07;;;;;;;-6.22;67.40;100598.69;6057852;23;20051;-83
2021/12/27 04:41:39;;;;;;;51.73;47.13;;;;;;;-6.07;67.28;100599.28;6023867;23;20031;-84
2021/12/27 04:44:04;;;;;;;52.43;47.53;;;;;;;-5.92;67.12;100611.47;6021187;23;20447;-84
2021/12/27 04:46:30;;;;;;;47.23;43.53;;;;;;;-5.94;67.28;100610.56;6022946;23;20273;-84
2021/12/27 04:48:55;;;;;;;51.97;47.30;;;;;;;-5.90;67.34;100624.03;6023921;23;20004;-84
2021/12/27 04:51:21;;;;;;;50.53;46.00;;;;;;;-5.96;67.51;100613.84;6017463;23;20250;-87
2021/12/27 04:53:51;;;;;;;51.72;46.58;;;;;;;-5.85;66.90;100625.09;5995880;23;20010;-87
2021/12/27 04:56:16;;;;;;;50.08;45.53;;;;;;;-5.76;66.79;100607.84;6020004;23;20495;-87
2021/12/27 04:58:44;;;;;;;52.20;46.70;;;;;;;-5.77;66.66;100611.16;6020365;23;20010;-87
2021/12/27 05:01:11;;;;;;;52.10;47.22;;;;;;;-5.77;67.42;100608.66;6001996;23;20003;-86
2021/12/27 05:03:36;;;;;;;;;;;;;;;-5.81;67.37;100604.34;5992083;23;20000;-88
2021/12/27 05:06:01;;;;;;;52.42;47.47;;;;;;;-5.73;66.76;100597.09;5992450;23;19950;-87
2021/12/27 05:08:26;;;;;;;51.13;46.27;;;;;;;-5.97;66.63;100572.91;6016824;23;20004;-86
2021/12/27 05:10:52;;;;;;;54.43;48.57;;;;;;;-5.76;66.98;100602.84;6023898;23;19992;-86
2021/12/27 05:13:18;;;;;;;52.67;47.37;;;;;;;-5.74;67.17;100572.81;6000162;23;20451;-87
2021/12/27 05:15:43;;;;;;;41.20;36.78;;;;;;;-5.63;67.25;100598.25;6002703;23;20008;-87
2021/12/27 05:18:08;;;;;;;55.13;47.27;;;;;;;-5.76;67.45;100582.78;6007515;23;20014;-87
2021/12/27 05:20:34;;;;;;;51.20;46.03;;;;;;;-5.85;67.03;100562.44;6006230;23;20000;-86
2021/12/27 05:22:59;;;;;;;52.83;47.13;;;;;;;-5.75;68.13;100574.50;6014289;23;20006;-86
2021/12/27 05:25:24;;;;;;;50.57;46.03;;;;;;;-5.56;68.02;100597.69;6014833;23;20011;-86
2021/12/27 05:27:50;;;;;;;50.50;45.73;;;;;;;-5.73;68.91;100572.03;6015083;23;20071;-87
2021/12/27 05:30:16;;;;;;;53.70;48.27;;;;;;;-5.60;69.79;100590.84;6011405;23;20093;-88
2021/12/27 05:32:43;;;;;;;53.10;47.78;;;;;;;-5.72;69.21;100567.09;5996312;23;20004;-87
2021/12/27 05:35:09;;;;;;;54.88;49.03;;;;;;;-5.65;69.70;100589.06;5992842;23;20011;-87
2021/12/27 05:37:35;;;;;;;52.85;47.20;;;;;;;-5.78;70.21;100564.34;5970041;23;20007;-87
2021/12/27 05:40:05;;;;;;;55.77;49.40;;;;;;;-5.79;69.91;100577.69;5994818;23;20011;-88
2021/12/27 05:42:34;;;;;;;52.50;47.47;;;;;;;-5.56;70.23;100583.50;5994864;23;20004;-87
2021/12/27 05:45:00;;;;;;;52.08;46.65;;;;;;;-5.72;70.46;100569.59;5970447;23;20086;-87
2021/12/27 05:47:26;;;;;;;49.72;45.42;;;;;;;-5.77;70.23;100566.06;5993090;23;20007;-88
2021/12/27 05:49:51;;;;;;;47.07;43.27;;;;;;;-5.75;70.02;100559.47;5992214;23;20014;-88
2021/12/27 05:52:16;;;;;;;49.30;44.87;;;;;;;-5.48;70.02;100588.78;6002095;23;20007;-87
2021/12/27 05:54:42;;;;;;;52.60;47.47;;;;;;;-5.56;70.71;100585.16;6006269;23;20063;-87
2021/12/27 05:57:07;;;;;;;52.80;47.83;;;;;;;-5.79;71.54;100547.63;6007807;23;20015;-87
2021/12/27 05:59:33;;;;;;;57.67;47.77;;;;;;;-5.59;71.61;100577.53;5994556;23;20511;-87
2021/12/27 06:01:58;;;;;;;43.83;39.10;;;;;;;-5.50;72.50;100565.31;6016509;23;20007;-86
2021/12/27 06:04:23;;;;;;;52.53;47.70;;;;;;;-5.52;72.46;100570.28;5991814;23;20000;-88
2021/12/27 06:06:49;;;;;;;52.13;47.50;;;;;;;-5.50;72.40;100565.31;5999949;23;20068;-88
2021/12/27 06:09:14;;;;;;;52.97;47.57;;;;;;;-5.47;71.85;100560.41;6000307;23;20003;-88
2021/12/27 06:11:40;;;;;;;49.50;44.93;;;;;;;-5.46;72.10;100559.59;6006982;23;20012;-87
2021/12/27 06:14:05;;;;;;;54.13;48.67;;;;;;;-5.56;72.43;100555.09;6004129;23;20015;-88
2021/12/27 06:16:31;;;;;;;53.67;47.97;;;;;;;-5.69;72.60;100542.13;6003263;23;20027;-87
2021/12/27 06:18:56;;;;;;;60.37;49.83;;;;;;;-5.70;74.04;100547.94;5998284;23;20020;-87
2021/12/27 06:21:22;;;;;;;48.03;43.90;;;;;;;-5.78;74.65;100528.44;5995286;23;20014;-88
2021/12/27 06:23:47;;;;;;;47.53;43.83;;;;;;;-5.65;74.89;100551.47;5998778;23;20376;-87
2021/12/27 06:26:13;;;;;;;51.13;46.07;;;;;;;-5.75;75.44;100529.38;6006648;23;20011;-87
2021/12/27 06:28:38;;;;;;;59.57;49.10;;;;;;;-5.65;75.69;100553.09;6009194;23;20002;-87
2021/12/27 06:31:04;;;;;;;60.83;49.47;;;;;;;-5.73;75.46;100537.81;6012821;23;20016;-87
2021/12/27 06:33:30;;;;;;;52.53;47.15;;;;;;;-5.80;75.27;100523.38;5990374;23;20008;-87
2021/12/27 06:35:56;;;;;;;50.55;45.83;;;;;;;-5.63;75.11;100544.00;5989382;23;20012;-87
2021/12/27 06:38:22;;;;;;;57.17;51.20;;;;;;;-5.90;75.38;100508.81;6036330;23;20007;-87
2021/12/27 06:40:51;;;;;;;52.67;47.50;;;;;;;-5.79;75.74;100526.72;6033830;23;20016;-87
2021/12/27 06:43:16;;;;;;;56.78;47.95;;;;;;;-5.78;75.41;100515.91;6008228;23;20015;-88
2021/12/27 06:45:43;;;;;;;57.27;51.07;;;;;;;-5.83;74.98;100526.63;6010906;23;20007;-87
2021/12/27 06:48:08;;;;;;;52.75;47.50;;;;;;;-5.59;75.76;100552.47;6011661;23;19992;-87
2021/12/27 06:50:34;;;;;;;53.28;47.72;;;;;;;-5.93;75.69;100496.19;5986548;23;20052;-87
2021/12/27 06:52:59;;;;;;;55.50;49.55;;;;;;;-5.69;75.14;100514.56;6005869;23;20019;-87
2021/12/27 06:55:25;;;;;;;51.00;46.50;;;;;;;-5.47;75.04;100542.88;6004724;23;20068;-87
2021/12/27 06:57:51;;;;;;;40.25;36.50;;;;;;;-5.47;74.83;100537.84;6028595;23;20041;-86
2021/12/27 07:00:17;;;;;;;48.50;44.30;;;;;;;-5.56;75.13;100514.97;6005121;23;20007;-87
2021/12/27 07:02:44;;;;;;;57.88;49.70;;;;;;;-5.80;74.92;100490.81;6002199;23;20016;-87
2021/12/27 07:05:11;;;;;;;54.05;48.47;;;;;;;-5.60;75.25;100511.50;6024972;23;20003;-88
2021/12/27 07:07:36;;;;;;;;;;;;;;;-5.32;74.93;100540.84;5976125;23;20093;-87
2021/12/27 07:10:04;;;;;;;53.30;47.92;;;;;;;-5.56;75.05;100520.84;5995515;23;19954;-87
2021/12/27 07:12:29;;;;;;;52.83;47.50;;;;;;;-5.49;75.37;100522.75;5996578;23;20004;-88
2021/12/27 07:14:54;;;;;;;42.30;37.37;;;;;;;-5.44;75.27;100542.09;5986582;23;20079;-85
2021/12/27 07:17:20;;;;;;;53.10;47.57;;;;;;;-5.45;75.56;100543.75;6035470;23;20012;-87
2021/12/27 07:19:45;;;;;;;48.00;44.10;;;;;;;-5.43;76.41;100537.13;6011022;23;20026;-87
2021/12/27 07:22:10;;;;;;;57.23;50.90;;;;;;;-5.57;76.29;100528.31;5987759;23;20007;-86
2021/12/27 07:24:36;;;;;;;55.87;49.90;;;;;;;-5.52;76.41;100536.81;6033685;23;19995;-86
2021/12/27 07:27:01;;;;;;;54.40;48.80;;;;;;;-5.45;76.80;100547.94;5986168;23;19995;-86
2021/12/27 07:29:26;;;;;;;53.33;48.37;;;;;;;-5.45;77.01;100540.41;6032019;23;20011;-87
2021/12/27 07:31:52;;;;;;;54.83;48.97;;;;;;;-5.40;77.12;100527.22;6004142;23;20011;-87
2021/12/27 07:34:19;;;;;;;66.37;54.30;;;;;;;-5.45;78.24;100533.72;5975107;23;20004;-87
2021/12/27 07:36:46;;;;;;;56.05;50.33;;;;;;;-5.43;78.89;100528.78;5983468;23;20079;-87
2021/12/27 07:39:12;;;;;;;56.58;50.80;;;;;;;-5.50;78.70;100522.72;5997468;23;20091;-89
2021/12/27 07:41:38;;;;;;;54.53;48.75;;;;;;;-5.40;78.68;100536.41;6000972;23;20004;-88
2021/12/27 07:44:03;;;;;;;58.07;51.03;;;;;;;-5.44;78.82;100545.47;5993997;23;20039;-88
2021/12/27 07:46:29;;;;;;;50.47;46.37;;;;;;;-5.56;78.67;100494.94;5992639;23;20783;-90
2021/12/27 07:48:54;;;;;;;49.57;45.47;;;;;;;-5.61;79.02;100491.44;5992928;23;20023;-89
2021/12/27 07:51:20;;;;;;;53.93;48.67;;;;;;;-5.52;79.12;100506.75;6016313;23;20245;-88
2021/12/27 07:53:45;;;;;;;53.07;48.10;;;;;;;-5.41;78.76;100535.53;5970718;23;20087;-88
2021/12/27 07:56:13;;;;;;;54.63;48.97;;;;;;;-5.62;79.02;100485.53;5995687;23;20016;-88
2021/12/27 07:58:39;;;;;;;51.55;46.85;;;;;;;-5.57;78.47;100509.09;5993660;23;20011;-87
2021/12/27 08:01:05;;;;;;;55.87;50.13;;;;;;;-5.54;78.79;100501.69;5970040;23;20018;-87
2021/12/27 08:03:30;;;;;;;54.17;48.80;;;;;;;-5.39;78.88;100513.88;5991701;23;20010;-87
2021/12/27 08:05:56;;;;;;;50.50;45.87;;;;;;;-5.43;78.74;100507.06;5994465;23;20007;-87
2021/12/27 08:08:21;;;;;;;51.47;46.70;;;;;;;-5.23;78.88;100517.75;5995039;23;20006;-89
2021/12/27 08:10:47;;;;;;;56.67;50.07;;;;;;;-5.12;78.83;100518.94;5994007;23;20015;-87
2021/12/27 08:13:15;;;;;;;55.23;49.47;;;;;;;-5.16;78.54;100496.22;5993222;23;20020;-89
2021/12/27 08:15:40;;;;;;;50.83;46.33;;;;;;;-5.01;78.52;100506.72;5993305;23;20011;-89
2021/12/27 08:18:06;;;;;;;57.30;51.03;;;;;;;-5.21;78.19;100491.03;5993786;23;20527;-86
2021/12/27 08:20:31;;;;;;;59.90;49.33;;;;;;;-5.17;78.54;100481.94;5992566;23;20019;-86
2021/12/27 08:22:56;;;;;;;62.97;51.43;;;;;;;-4.93;77.95;100496.94;5992345;23;20012;-88
2021/12/27 08:25:22;;;;;;;57.03;50.67;;;;;;;-4.98;77.73;100475.84;5994192;23;20007;-87
2021/12/27 08:27:48;;;;;;;147.50;58.70;;;;;;;-4.98;78.73;100500.94;5993750;23;20007;-87
2021/12/27 08:30:13;;;;;;;57.92;52.03;;;;;;;-5.01;78.90;100501.72;5992505;23;20436;-87
2021/12/27 08:32:41;;;;;;;58.27;52.07;;;;;;;-5.15;78.91;100476.19;5999866;23;20004;-87
2021/12/27 08:35:07;;;;;;;56.13;50.45;;;;;;;-4.95;78.49;100501.91;5999688;23;20042;-88
2021/12/27 08:37:32;;;;;;;;;;;;;;;-4.89;78.37;100497.88;5999498;23;20004;-88
2021/12/27 08:39:59;;;;;;;59.45;50.30;;;;;;;-4.99;78.87;100501.75;5993669;23;19987;-87
2021/12/27 08:42:24;;;;;;;57.28;51.45;;;;;;;-4.82;79.06;100497.22;5971263;23;20094;-86
2021/12/27 08:44:50;;;;;;;57.05;51.20;;;;;;;-4.70;78.23;100497.59;5993767;23;20019;-89
2021/12/27 08:47:15;;;;;;;55.92;49.83;;;;;;;-4.66;79.11;100499.41;5993280;23;20356;-87
2021/12/27 08:49:42;;;;;;;57.27;51.23;;;;;;;-4.74;79.33;100503.31;5993391;23;20424;-87
2021/12/27 08:52:07;;;;;;;58.17;51.47;;;;;;;-4.72;79.46;100503.38;5969996;23;20022;-88
2021/12/27 08:54:33;;;;;;;55.05;49.65;;;;;;;-4.86;78.93;100480.41;5992734;23;20008;-87
2021/12/27 08:56:58;;;;;;;51.20;46.40;;;;;;;-4.58;78.55;100510.53;5970096;23;20011;-88
2021/12/27 08:59:24;;;;;;;59.13;52.73;;;;;;;-4.75;78.70;100514.19;6016130;23;20444;-88
2021/12/27 09:01:50;;;;;;;62.10;52.60;;;;;;;-4.67;79.10;100507.72;5992799;23;20004;-87
2021/12/27 09:04:15;;;;;;;57.42;51.28;;;;;;;-4.64;78.89;100499.47;5992208;23;20011;-87
2021/12/27 09:06:40;;;;;;;57.87;50.87;;;;;;;-4.53;78.70;100519.84;5992500;23;20351;-87
2021/12/27 09:09:06;;;;;;;54.33;48.47;;;;;;;-4.50;78.37;100507.38;6016115;23;20016;-87
2021/12/27 09:11:31;;;;;;;59.53;52.00;;;;;;;-4.74;78.80;100484.13;5991248;23;20007;-87
2021/12/27 09:13:57;;;;;;;63.27;53.60;;;;;;;-4.73;78.98;100497.50;5995539;23;20144;-87
2021/12/27 09:16:22;;;;;;;67.23;53.20;;;;;;;-4.52;79.19;100506.47;6009405;23;20018;-86
2021/12/27 09:18:47;;;;;;;56.40;50.87;;;;;;;-4.63;78.54;100491.97;6012797;23;20051;-86
2021/12/27 09:21:13;;;;;;;57.57;51.43;;;;;;;-4.60;78.68;100492.06;6012759;23;20019;-86
2021/12/27 09:23:38;;;;;;;57.10;51.17;;;;;;;-4.51;79.45;100508.19;6005214;23;20012;-88
2021/12/27 09:26:04;;;;;;;63.43;54.57;;;;;;;-4.58;79.09;100514.66;5995474;23;20004;-87
2021/12/27 09:28:30;;;;;;;68.82;54.78;;;;;;;-4.75;79.35;100479.06;6005086;23;20006;-88
2021/12/27 09:30:56;;;;;;;65.35;53.47;;;;;;;-4.69;79.78;100463.31;5994030;23;20154;-87
2021/12/27 09:33:22;;;;;;;62.33;53.17;;;;;;;-4.62;79.30;100445.97;5970084;23;20059;-89
2021/12/27 09:35:48;;;;;;;60.00;53.70;;;;;;;-4.48;78.62;100468.97;5969724;23;20011;-88
2021/12/27 09:38:13;;;;;;;59.17;52.95;;;;;;;-4.37;78.46;100472.63;5970383;23;20010;-88
2021/12/27 09:40:39;;;;;;;71.05;55.10;;;;;;;-4.32;79.19;100495.34;5971201;23;20007;-87
2021/12/27 09:43:05;;;;;;;54.95;49.47;;;;;;;-4.46;78.72;100456.44;5994741;23;20019;-88
2021/12/27 09:45:30;;;;;;;71.53;56.73;;;;;;;-4.54;79.52;100463.75;5988612;23;20012;-86
2021/12/27 09:47:56;;;;;;;61.80;52.53;;;;;;;-4.33;79.45;100481.06;5989857;23;20015;-86
2021/12/27 09:50:26;;;;;;;57.50;51.53;;;;;;;-4.37;79.50;100470.09;6012568;23;20076;-87
2021/12/27 09:52:54;;;;;;;59.53;53.28;;;;;;;-4.45;79.68;100463.19;6021864;23;20090;-87
2021/12/27 09:55:20;;;;;;;57.47;51.70;;;;;;;-4.32;80.17;100475.25;5996121;23;20008;-88
2021/12/27 09:57:45;;;;;;;60.72;53.88;;;;;;;-4.55;79.27;100444.47;5995128;23;20011;-88
2021/12/27 10:00:11;;;;;;;64.07;52.87;;;;;;;-4.47;79.68;100439.66;5995088;23;20004;-88
2021/12/27 10:02:38;;;;;;;68.38;53.63;;;;;;;-4.45;79.57;100458.16;6019000;23;20072;-88
2021/12/27 10:05:05;;;;;;;62.75;54.55;;;;;;;-4.33;79.58;100473.53;5996441;23;20028;-88
2021/12/27 10:07:30;;;;;;;;;;;;;;;-4.20;79.90;100470.56;6000274;23;20007;-87
2021/12/27 10:10:00;;;;;;;55.72;49.92;;;;;;;-4.20;79.85;100460.53;6004334;23;19925;-87
2021/12/27 10:12:27;;;;;;;55.58;49.92;;;;;;;-4.32;79.88;100440.09;5974394;23;20070;-89
2021/12/27 10:14:57;;;;;;;55.17;49.65;;;;;;;-4.19;79.84;100456.34;5970657;23;20004;-87
2021/12/27 10:17:23;;;;;;;63.40;53.13;;;;;;;-4.20;80.45;100467.19;5994277;23;20008;-86
2021/12/27 10:19:52;;;;;;;71.63;55.55;;;;;;;-4.36;80.53;100438.31;5994633;23;20008;-88
2021/12/27 10:22:19;;;;;;;58.22;51.40;;;;;;;-4.30;80.63;100448.50;5993637;23;20099;-88
2021/12/27 10:24:45;;;;;;;52.95;48.13;;;;;;;-4.35;80.69;100414.91;5979617;23;20444;-88
2021/12/27 10:27:10;;;;;;;56.28;50.60;;;;;;;-4.13;80.74;100446.47;6010304;23;20031;-87
2021/12/27 10:29:38;;;;;;;57.27;51.27;;;;;;;-4.22;81.11;100459.63;6013997;23;20068;-86
2021/12/27 10:32:10;;;;;;;57.75;51.67;;;;;;;-4.33;81.07;100435.88;6014429;23;20036;-86
2021/12/27 10:34:45;;;;;;;63.60;53.13;;;;;;;-4.16;81.12;100446.38;6014662;23;20051;-86
2021/12/27 10:37:20;;;;;;;56.83;51.00;;;;;;;-4.18;81.30;100437.97;6014681;23;20011;-86
2021/12/27 10:40:23;;;;;;;58.80;52.70;;;;;;;-4.22;80.80;100421.94;6035186;23;20019;-87
2021/12/27 10:42:50;;;;;;;62.20;52.25;;;;;;;-4.04;81.51;100435.78;6029392;23;20015;-88
2021/12/27 10:45:19;;;;;;;57.92;52.22;;;;;;;-4.08;81.87;100431.53;6011817;23;20067;-86
2021/12/27 10:47:53;;;;;;;57.58;51.67;;;;;;;-4.15;81.73;100422.09;6037702;23;20003;-87
2021/12/27 10:50:27;;;;;;;59.08;52.65;;;;;;;-4.20;81.92;100405.28;6012857;23;19995;-87
2021/12/27 10:53:05;;;;;;;61.58;52.63;;;;;;;-3.97;81.76;100435.16;6089737;23;20021;-84
2021/12/27 10:55:37;;;;;;;60.97;54.22;;;;;;;-3.97;81.78;100426.78;6041746;23;20023;-84
2021/12/27 10:58:11;;;;;;;62.63;55.50;;;;;;;-3.97;81.96;100402.50;6041837;23;19999;-83
2021/12/27 11:00:37;;;;;;;58.45;52.55;;;;;;;-3.77;81.39;100412.19;6087267;23;20012;-83
2021/12/27 11:03:02;;;;;;;70.18;54.75;;;;;;;-3.83;81.49;100407.88;6031197;23;20013;-84
2021/12/27 11:05:30;;;;;;;59.25;53.33;;;;;;;-3.80;81.55;100394.50;6025628;23;20030;-83
2021/12/27 11:08:00;;;;;;;57.65;51.70;;;;;;;-3.69;80.53;100400.63;6026736;23;20026;-84
2021/12/27 11:10:27;;;;;;;61.25;54.25;;;;;;;-3.66;80.81;100413.28;6026452;23;20007;-84
2021/12/27 11:12:52;;;;;;;56.75;51.75;;;;;;;-3.54;80.54;100421.13;6029591;23;20027;-84